createdAt,value
2019-03-25T00:00:18.389Z,4.37
2019-03-25T00:02:51.889Z,2.70
2019-03-25T00:05:25.416Z,2.37
2019-03-25T00:07:59.054Z,2.80
2019-03-25T00:10:32.658Z,2.20
2019-03-25T00:13:06.218Z,2.83
2019-03-25T00:15:39.885Z,2.80
2019-03-25T00:18:13.478Z,2.90
2019-03-25T00:20:47.080Z,3.23
2019-03-25T00:23:20.649Z,2.93
2019-03-25T00:25:54.254Z,2.80
2019-03-25T00:28:27.813Z,2.73
2019-03-25T00:31:01.360Z,2.87
2019-03-25T00:33:35.221Z,2.80
2019-03-25T00:36:08.970Z,2.93
2019-03-25T00:38:42.542Z,2.60
2019-03-25T00:41:16.073Z,2.77
2019-03-25T00:43:49.565Z,3.03
2019-03-25T00:46:23.094Z,2.87
2019-03-25T00:48:56.667Z,3.10
2019-03-25T00:51:30.193Z,3.47
2019-03-25T00:54:03.857Z,2.90
2019-03-25T00:56:37.449Z,3.07
2019-03-25T00:59:11.041Z,2.77
2019-03-25T01:01:44.645Z,3.07
2019-03-25T01:04:18.223Z,2.93
2019-03-25T01:06:51.879Z,2.80
2019-03-25T01:09:25.513Z,2.50
2019-03-25T01:11:59.117Z,2.60
2019-03-25T01:14:32.708Z,2.47
2019-03-25T01:17:06.308Z,2.60
2019-03-25T01:19:39.914Z,2.40
2019-03-25T01:22:13.526Z,2.53
2019-03-25T01:24:48.260Z,2.73
2019-03-25T01:27:21.800Z,2.50
2019-03-25T01:29:55.297Z,2.30
2019-03-25T01:32:29.161Z,2.57
2019-03-25T01:35:02.822Z,2.47
2019-03-25T01:37:36.341Z,2.20
2019-03-25T01:40:10.461Z,2.33
2019-03-25T01:42:43.952Z,2.37
2019-03-25T01:45:17.564Z,2.23
2019-03-25T01:47:51.056Z,2.33
2019-03-25T01:50:24.651Z,1.97
2019-03-25T01:52:58.308Z,2.47
2019-03-25T01:55:31.804Z,1.80
2019-03-25T01:58:05.465Z,2.17
2019-03-25T02:00:39.088Z,2.23
2019-03-25T02:03:12.620Z,2.37
2019-03-25T02:05:46.211Z,2.23
2019-03-25T02:08:19.697Z,2.30
2019-03-25T02:10:53.256Z,2.33
2019-03-25T02:13:26.927Z,2.60
2019-03-25T02:16:00.599Z,2.00
2019-03-25T02:18:34.094Z,2.37
2019-03-25T02:21:09.440Z,2.10
2019-03-25T02:23:43.012Z,2.40
2019-03-25T02:26:16.615Z,2.23
2019-03-25T02:28:50.172Z,2.37
2019-03-25T02:31:23.980Z,2.83
2019-03-25T02:33:57.473Z,2.60
2019-03-25T02:36:31.066Z,2.40
2019-03-25T02:39:05.863Z,2.03
2019-03-25T02:41:39.380Z,2.40
2019-03-25T02:44:12.939Z,3.03
2019-03-25T02:46:46.554Z,2.70
2019-03-25T02:49:20.145Z,2.53
2019-03-25T02:51:53.724Z,2.10
2019-03-25T02:54:27.215Z,2.80
2019-03-25T02:57:00.980Z,2.90
2019-03-25T02:59:34.532Z,2.70
2019-03-25T03:02:08.044Z,3.27
2019-03-25T03:04:41.826Z,3.10
2019-03-25T03:07:15.406Z,3.90
2019-03-25T03:09:48.977Z,3.90
2019-03-25T03:12:22.575Z,3.20
2019-03-25T03:14:56.084Z,3.80
2019-03-25T03:17:29.668Z,4.17
2019-03-25T03:20:04.002Z,4.40
2019-03-25T03:22:37.560Z,3.50
2019-03-25T03:25:11.160Z,3.57
2019-03-25T03:27:44.739Z,3.70
2019-03-25T03:30:18.737Z,3.53
2019-03-25T03:32:52.569Z,4.43
2019-03-25T03:35:26.167Z,4.67
2019-03-25T03:37:59.736Z,5.27
2019-03-25T03:40:34.994Z,6.50
2019-03-25T03:43:08.595Z,6.37
2019-03-25T03:45:42.196Z,7.30
2019-03-25T03:48:15.967Z,7.30
2019-03-25T03:50:49.650Z,7.40
2019-03-25T03:53:23.227Z,7.73
2019-03-25T03:56:11.492Z,8.00
2019-03-25T03:58:33.616Z,7.13
2019-03-25T04:01:07.582Z,5.63
2019-03-25T04:03:41.162Z,6.30
2019-03-25T04:06:14.774Z,4.20
2019-03-25T04:08:48.351Z,4.10
2019-03-25T04:11:21.938Z,3.13
2019-03-25T04:13:55.581Z,2.50
2019-03-25T04:16:29.174Z,3.17
2019-03-25T04:19:02.870Z,2.13
2019-03-25T04:21:36.441Z,2.50
2019-03-25T04:24:10.046Z,1.63
2019-03-25T04:26:43.684Z,1.30
2019-03-25T04:29:17.276Z,1.30
2019-03-25T04:31:51.470Z,1.00
2019-03-25T04:34:25.021Z,1.23
2019-03-25T04:36:58.522Z,0.70
2019-03-25T04:39:32.369Z,1.10
2019-03-25T04:42:06.006Z,0.50
2019-03-25T04:44:40.200Z,1.20
2019-03-25T04:47:13.746Z,0.73
2019-03-25T04:49:47.300Z,0.43
2019-03-25T04:52:20.903Z,0.73
2019-03-25T04:54:54.476Z,0.83
2019-03-25T04:57:28.060Z,0.83
2019-03-25T05:00:01.586Z,1.07
2019-03-25T05:02:35.456Z,1.00
2019-03-25T05:05:09.681Z,1.20
2019-03-25T05:07:43.278Z,1.00
2019-03-25T05:10:16.851Z,1.30
2019-03-25T05:12:50.453Z,2.40
2019-03-25T05:15:24.039Z,1.23
2019-03-25T05:17:57.927Z,1.03
2019-03-25T05:20:31.523Z,1.30
2019-03-25T05:23:05.008Z,1.20
2019-03-25T05:25:38.622Z,1.30
2019-03-25T05:28:12.113Z,0.90
2019-03-25T05:30:45.709Z,1.20
2019-03-25T05:33:19.227Z,1.20
2019-03-25T05:35:52.795Z,0.80
2019-03-25T05:38:26.362Z,0.90
2019-03-25T05:41:01.285Z,1.00
2019-03-25T05:43:36.205Z,0.93
2019-03-25T05:46:09.777Z,0.90
2019-03-25T05:48:43.300Z,0.80
2019-03-25T05:51:16.977Z,0.43
2019-03-25T05:53:50.577Z,0.93
2019-03-25T05:56:24.071Z,0.70
2019-03-25T05:58:57.674Z,0.97
2019-03-25T06:01:31.530Z,0.57
2019-03-25T06:04:05.167Z,0.87
2019-03-25T06:06:38.783Z,0.90
2019-03-25T06:09:12.376Z,0.80
2019-03-25T06:11:45.986Z,1.00
2019-03-25T06:14:19.752Z,0.87
2019-03-25T06:16:54.268Z,1.00
2019-03-25T06:19:27.842Z,0.70
2019-03-25T06:22:01.512Z,0.90
2019-03-25T06:24:35.074Z,0.80
2019-03-25T06:27:13.984Z,0.60
2019-03-25T06:29:43.985Z,0.80
2019-03-25T06:32:17.658Z,1.27
2019-03-25T06:34:51.234Z,0.70
2019-03-25T06:37:24.779Z,0.83
2019-03-25T06:39:58.343Z,0.70
2019-03-25T06:42:31.950Z,1.30
2019-03-25T06:45:08.155Z,1.13
2019-03-25T06:47:42.739Z,1.30
2019-03-25T06:50:17.661Z,0.80
2019-03-25T06:52:51.261Z,0.80
2019-03-25T06:55:24.875Z,0.97
2019-03-25T06:57:58.442Z,0.90
2019-03-25T07:00:32.088Z,1.20
2019-03-25T07:03:05.602Z,0.70
2019-03-25T07:05:39.091Z,0.70
2019-03-25T07:08:13.149Z,0.60
2019-03-25T07:10:46.637Z,0.83
2019-03-25T07:13:20.396Z,0.70
2019-03-25T07:15:53.893Z,1.07
2019-03-25T07:18:27.519Z,1.33
2019-03-25T07:21:01.097Z,0.80
2019-03-25T07:23:34.663Z,0.87
2019-03-25T07:26:08.321Z,1.30
2019-03-25T07:28:41.813Z,0.70
2019-03-25T07:31:15.333Z,0.80
2019-03-25T07:33:48.877Z,0.80
2019-03-25T07:36:22.375Z,0.73
2019-03-25T07:38:55.978Z,1.10
2019-03-25T07:41:29.563Z,1.00
2019-03-25T07:44:04.207Z,1.43
2019-03-25T07:46:37.705Z,1.30
2019-03-25T07:49:12.592Z,1.07
2019-03-25T07:51:46.207Z,1.20
2019-03-25T07:54:19.802Z,1.10
2019-03-25T07:56:53.365Z,1.83
2019-03-25T07:59:26.926Z,1.03
2019-03-25T08:02:00.458Z,1.20
2019-03-25T08:04:34.100Z,1.47
2019-03-25T08:07:07.637Z,1.50
2019-03-25T08:09:41.334Z,1.10
2019-03-25T08:12:14.965Z,1.17
2019-03-25T08:14:48.619Z,0.90
2019-03-25T08:17:22.213Z,1.10
2019-03-25T08:19:55.773Z,1.23
2019-03-25T08:22:31.579Z,0.97
2019-03-25T08:25:06.875Z,1.00
2019-03-25T08:27:40.401Z,1.07
2019-03-25T08:30:14.363Z,1.07
2019-03-25T08:32:47.964Z,1.70
2019-03-25T08:35:21.525Z,1.17
2019-03-25T08:37:55.138Z,1.83
2019-03-25T08:40:28.717Z,1.60
2019-03-25T08:43:02.321Z,1.57
2019-03-25T08:45:35.888Z,1.60
2019-03-25T08:48:09.424Z,1.10
2019-03-25T08:50:44.973Z,1.10
2019-03-25T08:53:18.565Z,0.77
2019-03-25T08:55:52.197Z,1.00
2019-03-25T08:58:25.811Z,1.30
2019-03-25T09:00:59.440Z,1.00
2019-03-25T09:03:33.047Z,1.50
2019-03-25T09:06:06.743Z,1.20
2019-03-25T09:08:40.266Z,1.17
2019-03-25T09:11:13.783Z,1.10
2019-03-25T09:13:47.357Z,1.37
2019-03-25T09:16:20.952Z,1.27
2019-03-25T09:18:54.521Z,1.10
2019-03-25T09:21:28.503Z,1.43
2019-03-25T09:24:02.302Z,0.93
2019-03-25T09:26:36.385Z,0.90
2019-03-25T09:29:10.558Z,1.00
2019-03-25T09:31:44.682Z,1.05
2019-03-25T09:34:18.364Z,1.33
2019-03-25T09:36:52.008Z,1.00
2019-03-25T09:39:25.618Z,1.70
2019-03-25T09:41:59.171Z,1.10
2019-03-25T09:44:32.691Z,1.30
2019-03-25T09:47:06.480Z,1.13
2019-03-25T09:49:40.190Z,1.10
2019-03-25T09:52:13.988Z,1.50
2019-03-25T09:54:47.551Z,1.30
2019-03-25T09:57:21.156Z,0.97
2019-03-25T09:59:55.290Z,1.02
2019-03-25T10:02:29.381Z,0.90
2019-03-25T10:05:03.942Z,1.10
2019-03-25T10:07:38.124Z,0.90
2019-03-25T10:10:12.405Z,1.45
2019-03-25T10:12:46.502Z,1.22
2019-03-25T10:15:20.718Z,1.40
2019-03-25T10:17:56.187Z,1.00
2019-03-25T10:20:30.276Z,1.35
2019-03-25T10:23:04.557Z,0.93
2019-03-25T10:25:38.713Z,1.00
2019-03-25T10:28:12.962Z,1.50
2019-03-25T10:30:47.178Z,1.20
2019-03-25T10:33:21.403Z,1.30
2019-03-25T10:35:55.621Z,1.27
2019-03-25T10:38:29.291Z,1.10
2019-03-25T10:41:02.839Z,1.40
2019-03-25T10:43:36.601Z,1.30
2019-03-25T10:46:10.232Z,1.10
2019-03-25T10:48:43.828Z,0.93
2019-03-25T10:51:17.396Z,1.10
2019-03-25T10:53:51.035Z,1.27
2019-03-25T10:56:24.526Z,1.33
2019-03-25T10:58:58.533Z,1.27
2019-03-25T11:01:33.698Z,1.30
2019-03-25T11:04:07.296Z,1.23
2019-03-25T11:06:40.859Z,1.60
2019-03-25T11:09:14.642Z,1.20
2019-03-25T11:11:48.783Z,1.12
2019-03-25T11:14:22.946Z,1.30
2019-03-25T11:16:57.101Z,0.70
2019-03-25T11:19:31.344Z,1.30
2019-03-25T11:22:05.585Z,1.12
2019-03-25T11:24:39.677Z,1.32
2019-03-25T11:27:14.906Z,1.42
2019-03-25T11:29:48.460Z,1.07
2019-03-25T11:32:22.524Z,1.20
2019-03-25T11:34:56.820Z,1.52
2019-03-25T11:37:31.027Z,1.35
2019-03-25T11:40:09.223Z,1.17
2019-03-25T11:42:43.365Z,0.95
2019-03-25T11:45:17.816Z,1.57
2019-03-25T11:47:51.885Z,1.30
2019-03-25T11:50:25.996Z,1.12
2019-03-25T11:53:00.277Z,1.17
2019-03-25T11:55:34.443Z,1.62
2019-03-25T11:58:08.596Z,1.35
2019-03-25T12:00:42.901Z,1.65
2019-03-25T12:03:17.379Z,0.95
2019-03-25T12:05:51.561Z,1.25
2019-03-25T12:08:25.808Z,1.10
2019-03-25T12:11:00.028Z,1.32
2019-03-25T12:13:35.065Z,1.15
2019-03-25T12:16:09.223Z,2.00
2019-03-25T12:18:43.334Z,1.50
2019-03-25T12:21:17.661Z,0.90
2019-03-25T12:23:51.767Z,1.10
2019-03-25T12:26:26.148Z,1.12
2019-03-25T12:29:00.218Z,1.15
2019-03-25T12:31:33.749Z,1.57
2019-03-25T12:34:07.333Z,1.53
2019-03-25T12:36:40.925Z,1.43
2019-03-25T12:39:14.412Z,1.40
2019-03-25T12:41:47.920Z,1.97
2019-03-25T12:44:21.484Z,1.87
2019-03-25T12:46:55.076Z,1.87
2019-03-25T12:49:28.781Z,1.73
2019-03-25T12:52:02.282Z,1.53
2019-03-25T12:54:35.899Z,1.53
2019-03-25T12:57:09.966Z,1.45
2019-03-25T12:59:45.550Z,1.40
2019-03-25T13:02:19.683Z,1.37
2019-03-25T13:04:53.784Z,1.55
2019-03-25T13:07:27.886Z,1.17
2019-03-25T13:10:01.469Z,1.00
2019-03-25T13:12:35.308Z,0.80
2019-03-25T13:15:09.063Z,1.27
2019-03-25T13:17:42.565Z,0.93
2019-03-25T13:20:16.077Z,1.80
2019-03-25T13:22:49.567Z,1.10
2019-03-25T13:25:23.555Z,0.90
2019-03-25T13:27:57.110Z,0.80
2019-03-25T13:30:30.843Z,0.73
2019-03-25T13:33:04.391Z,0.77
2019-03-25T13:35:37.984Z,0.90
2019-03-25T13:38:11.485Z,0.60
2019-03-25T13:40:44.995Z,1.00
2019-03-25T13:43:18.518Z,0.70
2019-03-25T13:45:52.042Z,0.73
2019-03-25T13:48:25.567Z,0.80
2019-03-25T13:50:59.054Z,0.90
2019-03-25T13:53:32.571Z,0.50
2019-03-25T13:56:06.144Z,1.10
2019-03-25T13:58:39.735Z,0.80
2019-03-25T14:01:13.296Z,0.87
2019-03-25T14:03:46.837Z,0.80
2019-03-25T14:06:20.334Z,0.70
2019-03-25T14:08:55.758Z,0.63
2019-03-25T14:11:29.212Z,0.60
2019-03-25T14:14:02.740Z,0.90
2019-03-25T14:16:36.304Z,0.83
2019-03-25T14:19:10.031Z,1.00
2019-03-25T14:21:43.522Z,0.87
2019-03-25T14:24:17.180Z,1.03
2019-03-25T14:26:50.731Z,0.70
2019-03-25T14:29:24.280Z,0.80
2019-03-25T14:31:57.804Z,1.37
2019-03-25T14:34:30.997Z,0.90
2019-03-25T14:37:04.614Z,1.17
2019-03-25T14:39:38.151Z,1.13
2019-03-25T14:42:11.634Z,1.07
2019-03-25T14:44:45.221Z,1.27
2019-03-25T14:47:18.798Z,1.03
2019-03-25T14:49:52.339Z,1.00
2019-03-25T14:52:25.832Z,1.10
2019-03-25T14:54:59.436Z,0.80
2019-03-25T14:57:32.927Z,1.13
2019-03-25T15:00:08.399Z,1.50
2019-03-25T15:02:41.923Z,1.13
2019-03-25T15:05:15.819Z,1.67
2019-03-25T15:07:49.541Z,2.00
2019-03-25T15:10:23.171Z,3.87
2019-03-25T15:12:58.210Z,3.87
2019-03-25T15:15:31.919Z,6.23
2019-03-25T15:18:15.253Z,7.70
2019-03-25T15:20:40.871Z,2.60
2019-03-25T15:23:14.407Z,1.40
2019-03-25T15:25:47.998Z,1.47
2019-03-25T15:28:21.643Z,1.17
2019-03-25T15:30:55.146Z,1.13
2019-03-25T15:33:28.726Z,1.03
2019-03-25T15:36:02.282Z,1.10
2019-03-25T15:38:35.809Z,1.43
2019-03-25T15:41:10.371Z,1.40
2019-03-25T15:43:43.897Z,1.30
2019-03-25T15:46:17.396Z,1.53
2019-03-25T15:48:52.061Z,1.40
2019-03-25T15:51:25.615Z,1.63
2019-03-25T15:53:59.127Z,1.50
2019-03-25T15:56:32.636Z,1.37
2019-03-25T15:59:06.184Z,1.10
2019-03-25T16:01:39.864Z,1.40
2019-03-25T16:04:14.107Z,1.00
2019-03-25T16:06:47.692Z,1.10
2019-03-25T16:09:21.482Z,0.70
2019-03-25T16:11:56.083Z,0.90
2019-03-25T16:14:29.947Z,1.13
2019-03-25T16:17:03.510Z,0.70
2019-03-25T16:19:37.173Z,0.90
2019-03-25T16:22:10.810Z,0.90
2019-03-25T16:24:44.426Z,1.20
2019-03-25T16:27:17.999Z,0.90
2019-03-25T16:29:51.886Z,1.50
2019-03-25T16:32:25.486Z,1.23
2019-03-25T16:34:59.039Z,1.37
2019-03-25T16:37:32.634Z,1.60
2019-03-25T16:40:08.213Z,1.70
2019-03-25T16:42:42.083Z,1.77
2019-03-25T16:45:15.900Z,2.07
2019-03-25T16:47:49.561Z,2.30
2019-03-25T16:50:23.175Z,2.23
2019-03-25T16:52:56.733Z,2.23
2019-03-25T16:55:30.276Z,2.30
2019-03-25T16:58:03.910Z,2.60
2019-03-25T17:00:37.571Z,2.37
2019-03-25T17:03:11.233Z,2.37
2019-03-25T17:05:44.791Z,2.00
2019-03-25T17:08:18.537Z,2.27
2019-03-25T17:10:52.035Z,2.30
2019-03-25T17:13:26.693Z,2.40
2019-03-25T17:16:00.257Z,2.67
2019-03-25T17:18:33.991Z,2.67
2019-03-25T17:21:09.125Z,2.80
2019-03-25T17:23:42.727Z,3.37
2019-03-25T17:26:16.309Z,3.40
2019-03-25T17:28:49.825Z,3.00
2019-03-25T17:31:23.426Z,3.10
2019-03-25T17:33:56.921Z,3.20
2019-03-25T17:36:30.797Z,2.50
2019-03-25T17:39:08.115Z,2.97
2019-03-25T17:41:41.711Z,2.43
2019-03-25T17:44:15.289Z,2.83
2019-03-25T17:46:48.885Z,2.67
2019-03-25T17:49:22.615Z,2.90
2019-03-25T17:51:56.196Z,3.03
2019-03-25T17:54:29.802Z,2.70
2019-03-25T17:57:03.374Z,2.93
2019-03-25T17:59:36.983Z,2.83
2019-03-25T18:02:10.584Z,2.57
2019-03-25T18:04:44.183Z,2.87
2019-03-25T18:07:17.748Z,3.53
2019-03-25T18:09:51.350Z,3.67
2019-03-25T18:12:24.912Z,4.43
2019-03-25T18:14:58.700Z,4.63
2019-03-25T18:17:32.337Z,4.50
2019-03-25T18:20:18.046Z,4.00
2019-03-25T18:22:43.105Z,3.47
2019-03-25T18:25:16.651Z,4.77
2019-03-25T18:27:50.229Z,6.70
2019-03-25T18:30:31.709Z,5.77
2019-03-25T18:33:05.373Z,4.20
2019-03-25T18:35:38.870Z,3.60
2019-03-25T18:38:12.394Z,4.20
2019-03-25T18:40:45.957Z,4.10
2019-03-25T18:43:20.239Z,4.97
2019-03-25T18:45:53.836Z,3.83
2019-03-25T18:48:27.509Z,2.93
2019-03-25T18:51:01.268Z,2.37
2019-03-25T18:53:34.935Z,2.60
2019-03-25T18:56:09.518Z,3.00
2019-03-25T18:58:43.186Z,2.47
2019-03-25T19:01:16.836Z,1.97
2019-03-25T19:03:50.506Z,2.57
2019-03-25T19:06:24.117Z,2.47
2019-03-25T19:08:57.753Z,2.33
2019-03-25T19:11:31.668Z,2.87
2019-03-25T19:14:05.390Z,2.80
2019-03-25T19:16:38.932Z,3.13
2019-03-25T19:19:14.345Z,2.50
2019-03-25T19:21:47.985Z,2.43
2019-03-25T19:24:21.567Z,3.03
2019-03-25T19:26:55.160Z,2.40
2019-03-25T19:29:29.335Z,2.57
2019-03-25T19:32:06.890Z,2.10
2019-03-25T19:34:38.156Z,2.30
2019-03-25T19:37:11.818Z,1.90
2019-03-25T19:39:46.600Z,2.03
2019-03-25T19:42:20.153Z,1.97
2019-03-25T19:44:53.781Z,2.00
2019-03-25T19:47:27.339Z,2.20
2019-03-25T19:52:33.573Z,1.93
2019-03-25T19:55:07.496Z,1.50
2019-03-25T19:57:42.924Z,1.97
2019-03-25T20:00:19.521Z,2.27
2019-03-25T20:02:53.120Z,1.77
2019-03-25T20:05:26.678Z,2.00
2019-03-25T20:08:00.367Z,1.90
2019-03-25T20:10:37.552Z,1.67
2019-03-25T20:13:11.361Z,1.57
2019-03-25T20:15:46.678Z,1.73
2019-03-25T20:18:20.392Z,1.50
2019-03-25T20:20:54.164Z,2.00
2019-03-25T20:23:27.779Z,1.50
2019-03-25T20:26:01.398Z,1.67
2019-03-25T20:28:34.912Z,1.57
2019-03-25T20:31:09.469Z,1.73
2019-03-25T20:33:42.996Z,2.13
2019-03-25T20:36:16.871Z,1.97
2019-03-25T20:38:50.572Z,1.87
2019-03-25T20:41:24.130Z,1.70
2019-03-25T20:43:57.814Z,1.63
2019-03-25T20:46:31.473Z,1.90
2019-03-25T20:49:06.896Z,2.30
2019-03-25T20:51:40.665Z,1.73
2019-03-25T20:54:14.274Z,1.90
2019-03-25T20:56:47.816Z,2.10
2019-03-25T20:59:21.623Z,2.23
2019-03-25T21:01:55.186Z,2.33
2019-03-25T21:04:28.854Z,2.33
2019-03-25T21:07:02.733Z,3.47
2019-03-25T21:09:36.381Z,2.80
2019-03-25T21:12:09.884Z,2.57
2019-03-25T21:14:45.002Z,2.63
2019-03-25T21:17:18.553Z,2.80
2019-03-25T21:19:52.226Z,2.60
2019-03-25T21:22:25.831Z,1.97
2019-03-25T21:24:59.387Z,2.57
2019-03-25T21:27:32.991Z,2.70
2019-03-25T21:30:07.795Z,3.17
2019-03-25T21:32:41.645Z,2.93
2019-03-25T21:35:15.579Z,3.30
2019-03-25T21:37:49.163Z,3.50
2019-03-25T21:40:22.854Z,2.50
2019-03-25T21:42:56.455Z,3.20
2019-03-25T21:45:30.075Z,2.53
2019-03-25T21:48:03.885Z,2.80
2019-03-25T21:50:37.454Z,2.10
2019-03-25T21:53:12.346Z,2.17
2019-03-25T21:55:46.137Z,2.53
2019-03-25T21:58:19.780Z,2.40
2019-03-25T22:00:53.453Z,3.10
2019-03-25T22:03:26.950Z,2.57
2019-03-25T22:06:00.642Z,2.83
2019-03-25T22:08:34.199Z,2.67
2019-03-25T22:11:07.732Z,3.30
2019-03-25T22:13:41.802Z,3.10
2019-03-25T22:16:15.430Z,2.80
2019-03-25T22:18:48.958Z,2.43
2019-03-25T22:21:22.530Z,2.77
2019-03-25T22:23:56.063Z,2.70
2019-03-25T22:26:29.665Z,2.83
2019-03-25T22:29:03.266Z,2.17
2019-03-25T22:31:36.962Z,2.60
2019-03-25T22:34:10.449Z,2.63
2019-03-25T22:36:44.041Z,2.77
2019-03-25T22:39:17.827Z,2.67
2019-03-25T22:41:51.319Z,2.60
2019-03-25T22:44:24.921Z,2.63
2019-03-25T22:47:00.069Z,3.17
2019-03-25T22:49:33.637Z,2.87
2019-03-25T22:52:07.307Z,3.77
2019-03-25T22:54:40.943Z,3.30
2019-03-25T22:57:14.524Z,3.37
2019-03-25T22:59:48.118Z,4.03
2019-03-25T23:02:21.724Z,3.20
2019-03-25T23:04:55.294Z,3.87
2019-03-25T23:10:08.548Z,3.50
2019-03-25T23:12:42.121Z,3.13
2019-03-25T23:15:15.753Z,3.90
2019-03-25T23:17:49.350Z,3.70
2019-03-25T23:20:23.065Z,3.43
2019-03-25T23:22:57.907Z,3.63
2019-03-25T23:25:31.396Z,3.97
2019-03-25T23:28:04.981Z,4.27
2019-03-25T23:30:38.629Z,4.00
2019-03-25T23:33:12.418Z,3.93
2019-03-25T23:35:45.981Z,3.90
2019-03-25T23:38:19.570Z,3.90
2019-03-25T23:40:53.231Z,4.13
2019-03-25T23:43:26.762Z,4.20
2019-03-25T23:46:00.367Z,3.70
2019-03-25T23:48:33.874Z,4.33
2019-03-25T23:51:07.799Z,4.03
2019-03-25T23:53:41.406Z,3.93
2019-03-25T23:56:14.986Z,4.77
2019-03-25T23:58:48.967Z,3.83
